sensor_id;sensor_type;location;lat;lon;timestamp;pressure;altitude;pressure_sealevel;temperature;humidity
19827;BME280;10074;52.018;4.726;2024-02-15T00:02:44;46471.91;;;-144.79;100.00
19827;BME280;10074;52.018;4.726;2024-02-15T00:07:45;46469.88;;;-144.79;100.00
19827;BME280;10074;52.018;4.726;2024-02-15T00:12:48;46475.91;;;-144.79;100.00
19827;BME280;10074;52.018;4.726;2024-02-15T00:17:50;46471.91;;;-144.79;100.00
19827;BME280;10074;52.018;4.726;2024-02-15T00:22:51;46471.91;;;-144.79;100.00
19827;BME280;10074;52.018;4.726;2024-02-15T00:27:52;46473.91;;;-144.79;100.00
19827;BME280;10074;52.018;4.726;2024-02-15T00:32:53;46469.88;;;-144.79;100.00
19827;BME280;10074;52.018;4.726;2024-02-15T00:37:53;46471.91;;;-144.79;100.00
19827;BME280;10074;52.018;4.726;2024-02-15T00:42:53;46471.91;;;-144.79;100.00
19827;BME280;10074;52.018;4.726;2024-02-15T00:47:54;46477.91;;;-144.79;100.00
19827;BME280;10074;52.018;4.726;2024-02-15T00:52:56;46473.91;;;-144.79;100.00
19827;BME280;10074;52.018;4.726;2024-02-15T00:57:56;46471.91;;;-144.79;100.00
19827;BME280;10074;52.018;4.726;2024-02-15T01:02:58;46469.88;;;-144.79;100.00
19827;BME280;10074;52.018;4.726;2024-02-15T01:07:58;46475.91;;;-144.79;100.00
19827;BME280;10074;52.018;4.726;2024-02-15T01:12:58;46473.91;;;-144.79;100.00
19827;BME280;10074;52.018;4.726;2024-02-15T01:17:59;46471.91;;;-144.79;100.00
19827;BME280;10074;52.018;4.726;2024-02-15T01:22:59;46467.88;;;-144.79;100.00
19827;BME280;10074;52.018;4.726;2024-02-15T01:27:59;46471.91;;;-144.79;100.00
19827;BME280;10074;52.018;4.726;2024-02-15T01:33:02;46471.91;;;-144.79;100.00
19827;BME280;10074;52.018;4.726;2024-02-15T01:38:02;46471.91;;;-144.79;100.00
19827;BME280;10074;52.018;4.726;2024-02-15T01:43:03;46471.91;;;-144.79;100.00
19827;BME280;10074;52.018;4.726;2024-02-15T01:48:04;46465.88;;;-144.79;100.00
19827;BME280;10074;52.018;4.726;2024-02-15T01:53:07;46467.88;;;-144.79;100.00
19827;BME280;10074;52.018;4.726;2024-02-15T01:58:08;46471.91;;;-144.79;100.00
19827;BME280;10074;52.018;4.726;2024-02-15T02:03:08;46471.91;;;-144.79;100.00
19827;BME280;10074;52.018;4.726;2024-02-15T02:08:10;46469.88;;;-144.79;100.00
19827;BME280;10074;52.018;4.726;2024-02-15T02:13:10;46467.88;;;-144.79;100.00
19827;BME280;10074;52.018;4.726;2024-02-15T02:18:11;46475.91;;;-144.79;100.00
19827;BME280;10074;52.018;4.726;2024-02-15T02:23:16;46471.91;;;-144.79;100.00
19827;BME280;10074;52.018;4.726;2024-02-15T02:28:18;46465.88;;;-144.79;100.00
19827;BME280;10074;52.018;4.726;2024-02-15T02:33:18;46473.91;;;-144.79;100.00
19827;BME280;10074;52.018;4.726;2024-02-15T02:38:21;46471.91;;;-144.79;100.00
19827;BME280;10074;52.018;4.726;2024-02-15T02:43:21;46471.91;;;-144.79;100.00
19827;BME280;10074;52.018;4.726;2024-02-15T02:48:22;46469.88;;;-144.79;100.00
19827;BME280;10074;52.018;4.726;2024-02-15T02:53:22;46473.91;;;-144.79;100.00
19827;BME280;10074;52.018;4.726;2024-02-15T02:58:23;46473.91;;;-144.79;100.00
19827;BME280;10074;52.018;4.726;2024-02-15T03:03:23;46473.91;;;-144.79;100.00
19827;BME280;10074;52.018;4.726;2024-02-15T03:08:23;46473.91;;;-144.79;100.00
19827;BME280;10074;52.018;4.726;2024-02-15T03:13:24;46471.91;;;-144.79;100.00
19827;BME280;10074;52.018;4.726;2024-02-15T03:18:24;46471.91;;;-144.79;100.00
19827;BME280;10074;52.018;4.726;2024-02-15T03:23:24;46471.91;;;-144.79;100.00
19827;BME280;10074;52.018;4.726;2024-02-15T03:28:25;46467.88;;;-144.79;100.00
19827;BME280;10074;52.018;4.726;2024-02-15T03:33:25;46471.91;;;-144.79;100.00
19827;BME280;10074;52.018;4.726;2024-02-15T03:38:28;46471.91;;;-144.79;100.00
19827;BME280;10074;52.018;4.726;2024-02-15T03:43:29;46473.91;;;-144.79;100.00
19827;BME280;10074;52.018;4.726;2024-02-15T03:48:29;46471.91;;;-144.79;100.00
19827;BME280;10074;52.018;4.726;2024-02-15T03:53:30;46471.91;;;-144.79;100.00
19827;BME280;10074;52.018;4.726;2024-02-15T03:58:33;46473.91;;;-144.79;100.00
19827;BME280;10074;52.018;4.726;2024-02-15T04:03:33;46469.88;;;-144.79;100.00
19827;BME280;10074;52.018;4.726;2024-02-15T04:08:34;46473.91;;;-144.79;100.00
19827;BME280;10074;52.018;4.726;2024-02-15T04:13:35;46471.91;;;-144.79;100.00
19827;BME280;10074;52.018;4.726;2024-02-15T04:18:36;46467.88;;;-144.79;100.00
19827;BME280;10074;52.018;4.726;2024-02-15T04:23:37;46473.91;;;-144.79;100.00
19827;BME280;10074;52.018;4.726;2024-02-15T04:28:38;46475.91;;;-144.79;100.00
19827;BME280;10074;52.018;4.726;2024-02-15T04:33:38;46475.91;;;-144.79;100.00
19827;BME280;10074;52.018;4.726;2024-02-15T04:38:39;46473.91;;;-144.79;100.00
19827;BME280;10074;52.018;4.726;2024-02-15T04:43:40;46471.91;;;-144.79;100.00
19827;BME280;10074;52.018;4.726;2024-02-15T04:48:41;46473.91;;;-144.79;100.00
19827;BME280;10074;52.018;4.726;2024-02-15T04:53:43;46475.91;;;-144.79;100.00
19827;BME280;10074;52.018;4.726;2024-02-15T04:58:43;46471.91;;;-144.79;100.00
19827;BME280;10074;52.018;4.726;2024-02-15T05:03:47;46471.91;;;-144.79;100.00
19827;BME280;10074;52.018;4.726;2024-02-15T05:08:47;46469.88;;;-144.79;100.00
19827;BME280;10074;52.018;4.726;2024-02-15T05:13:48;46473.91;;;-144.79;100.00
19827;BME280;10074;52.018;4.726;2024-02-15T05:18:52;46475.91;;;-144.79;100.00
19827;BME280;10074;52.018;4.726;2024-02-15T05:23:53;46475.91;;;-144.79;100.00
19827;BME280;10074;52.018;4.726;2024-02-15T05:28:53;46475.91;;;-144.79;100.00
19827;BME280;10074;52.018;4.726;2024-02-15T05:33:54;46473.91;;;-144.79;100.00
19827;BME280;10074;52.018;4.726;2024-02-15T05:38:54;46473.91;;;-144.79;100.00
19827;BME280;10074;52.018;4.726;2024-02-15T05:43:54;46475.91;;;-144.79;100.00
19827;BME280;10074;52.018;4.726;2024-02-15T05:48:55;46473.91;;;-144.79;100.00
19827;BME280;10074;52.018;4.726;2024-02-15T05:53:55;46471.91;;;-144.79;100.00
19827;BME280;10074;52.018;4.726;2024-02-15T05:58:58;46477.91;;;-144.79;100.00
19827;BME280;10074;52.018;4.726;2024-02-15T06:03:58;46477.91;;;-144.79;100.00
19827;BME280;10074;52.018;4.726;2024-02-15T06:09:00;46475.91;;;-144.79;100.00
19827;BME280;10074;52.018;4.726;2024-02-15T06:14:01;46475.91;;;-144.79;100.00
19827;BME280;10074;52.018;4.726;2024-02-15T06:19:01;46475.91;;;-144.79;100.00
19827;BME280;10074;52.018;4.726;2024-02-15T06:24:02;46475.91;;;-144.79;100.00
19827;BME280;10074;52.018;4.726;2024-02-15T06:29:03;46477.91;;;-144.79;100.00
19827;BME280;10074;52.018;4.726;2024-02-15T06:34:22;46479.91;;;-144.79;100.00
19827;BME280;10074;52.018;4.726;2024-02-15T06:39:41;46477.91;;;-144.79;100.00
19827;BME280;10074;52.018;4.726;2024-02-15T06:44:45;46473.91;;;-144.79;100.00
19827;BME280;10074;52.018;4.726;2024-02-15T06:49:46;46471.91;;;-144.79;100.00
19827;BME280;10074;52.018;4.726;2024-02-15T06:54:46;46471.91;;;-144.79;100.00
19827;BME280;10074;52.018;4.726;2024-02-15T06:59:47;46463.88;;;-144.79;100.00
19827;BME280;10074;52.018;4.726;2024-02-15T07:04:47;46457.88;;;-144.79;100.00
19827;BME280;10074;52.018;4.726;2024-02-15T07:09:49;46453.84;;;-144.79;100.00
19827;BME280;10074;52.018;4.726;2024-02-15T07:14:49;46451.84;;;-144.79;100.00
19827;BME280;10074;52.018;4.726;2024-02-15T07:19:50;46451.84;;;-144.79;100.00
19827;BME280;10074;52.018;4.726;2024-02-15T07:24:51;46455.84;;;-144.79;100.00
19827;BME280;10074;52.018;4.726;2024-02-15T07:29:52;46455.84;;;-144.79;100.00
19827;BME280;10074;52.018;4.726;2024-02-15T07:34:53;46457.88;;;-144.79;100.00
19827;BME280;10074;52.018;4.726;2024-02-15T07:39:53;46457.88;;;-144.79;100.00
19827;BME280;10074;52.018;4.726;2024-02-15T07:44:53;46467.88;;;-144.79;100.00
19827;BME280;10074;52.018;4.726;2024-02-15T07:49:53;46463.88;;;-144.79;100.00
19827;BME280;10074;52.018;4.726;2024-02-15T07:54:54;46467.88;;;-144.79;100.00
19827;BME280;10074;52.018;4.726;2024-02-15T07:59:55;46471.91;;;-144.79;100.00
19827;BME280;10074;52.018;4.726;2024-02-15T08:04:55;46471.91;;;-144.79;100.00
19827;BME280;10074;52.018;4.726;2024-02-15T08:09:55;46469.88;;;-144.79;100.00
19827;BME280;10074;52.018;4.726;2024-02-15T08:14:57;46473.91;;;-144.79;100.00
19827;BME280;10074;52.018;4.726;2024-02-15T08:19:58;46475.91;;;-144.79;100.00
19827;BME280;10074;52.018;4.726;2024-02-15T08:24:58;46473.91;;;-144.79;100.00
19827;BME280;10074;52.018;4.726;2024-02-15T08:29:58;46477.91;;;-144.79;100.00
19827;BME280;10074;52.018;4.726;2024-02-15T08:34:58;46475.91;;;-144.79;100.00
19827;BME280;10074;52.018;4.726;2024-02-15T08:39:59;46479.91;;;-144.79;100.00
19827;BME280;10074;52.018;4.726;2024-02-15T08:44:59;46477.91;;;-144.79;100.00
19827;BME280;10074;52.018;4.726;2024-02-15T08:50:00;46479.91;;;-144.79;100.00
19827;BME280;10074;52.018;4.726;2024-02-15T08:55:00;46475.91;;;-144.79;100.00
19827;BME280;10074;52.018;4.726;2024-02-15T09:00:04;46479.91;;;-144.79;100.00
19827;BME280;10074;52.018;4.726;2024-02-15T09:05:13;46479.91;;;-144.79;100.00
19827;BME280;10074;52.018;4.726;2024-02-15T09:10:17;46479.91;;;-144.79;100.00
19827;BME280;10074;52.018;4.726;2024-02-15T09:15:18;46479.91;;;-144.79;100.00
19827;BME280;10074;52.018;4.726;2024-02-15T09:20:18;46477.91;;;-144.79;100.00
19827;BME280;10074;52.018;4.726;2024-02-15T09:25:19;46477.91;;;-144.79;100.00
19827;BME280;10074;52.018;4.726;2024-02-15T09:30:19;46477.91;;;-144.79;100.00
19827;BME280;10074;52.018;4.726;2024-02-15T09:35:20;46475.91;;;-144.79;100.00
19827;BME280;10074;52.018;4.726;2024-02-15T09:40:21;46479.91;;;-144.79;100.00
19827;BME280;10074;52.018;4.726;2024-02-15T09:45:21;46479.91;;;-144.79;100.00
19827;BME280;10074;52.018;4.726;2024-02-15T09:50:25;46479.91;;;-144.79;100.00
19827;BME280;10074;52.018;4.726;2024-02-15T09:55:28;46479.91;;;-144.79;100.00
19827;BME280;10074;52.018;4.726;2024-02-15T10:00:28;46477.91;;;-144.79;100.00
19827;BME280;10074;52.018;4.726;2024-02-15T10:05:28;46479.91;;;-144.79;100.00
19827;BME280;10074;52.018;4.726;2024-02-15T10:10:29;46479.91;;;-144.79;100.00
19827;BME280;10074;52.018;4.726;2024-02-15T10:15:39;46481.91;;;-144.79;100.00
19827;BME280;10074;52.018;4.726;2024-02-15T10:20:41;46479.91;;;-144.79;100.00
19827;BME280;10074;52.018;4.726;2024-02-15T10:25:44;46477.91;;;-144.79;100.00
19827;BME280;10074;52.018;4.726;2024-02-15T10:30:45;46475.91;;;-144.79;100.00
19827;BME280;10074;52.018;4.726;2024-02-15T10:35:46;46479.91;;;-144.79;100.00
19827;BME280;10074;52.018;4.726;2024-02-15T10:40:46;46479.91;;;-144.79;100.00
19827;BME280;10074;52.018;4.726;2024-02-15T10:45:48;46483.94;;;-144.79;100.00
19827;BME280;10074;52.018;4.726;2024-02-15T10:50:51;46479.91;;;-144.79;100.00
19827;BME280;10074;52.018;4.726;2024-02-15T11:01:00;46479.91;;;-144.79;100.00
19827;BME280;10074;52.018;4.726;2024-02-15T11:06:02;46475.91;;;-144.79;100.00
19827;BME280;10074;52.018;4.726;2024-02-15T11:11:06;46477.91;;;-144.79;100.00
19827;BME280;10074;52.018;4.726;2024-02-15T11:16:07;46477.91;;;-144.79;100.00
19827;BME280;10074;52.018;4.726;2024-02-15T11:21:07;46473.91;;;-144.79;100.00
19827;BME280;10074;52.018;4.726;2024-02-15T11:26:16;46479.91;;;-144.79;100.00
19827;BME280;10074;52.018;4.726;2024-02-15T11:31:54;46471.91;;;-144.79;100.00
19827;BME280;10074;52.018;4.726;2024-02-15T11:36:55;46477.91;;;-144.79;100.00
19827;BME280;10074;52.018;4.726;2024-02-15T11:42:27;46473.91;;;-144.79;100.00
19827;BME280;10074;52.018;4.726;2024-02-15T11:47:32;46477.91;;;-144.79;100.00
19827;BME280;10074;52.018;4.726;2024-02-15T11:52:34;46475.91;;;-144.79;100.00
19827;BME280;10074;52.018;4.726;2024-02-15T11:57:34;46473.91;;;-144.79;100.00
19827;BME280;10074;52.018;4.726;2024-02-15T12:02:47;46477.91;;;-144.79;100.00
19827;BME280;10074;52.018;4.726;2024-02-15T12:08:06;46479.91;;;-144.79;100.00
19827;BME280;10074;52.018;4.726;2024-02-15T12:13:42;46477.91;;;-144.79;100.00
19827;BME280;10074;52.018;4.726;2024-02-15T12:19:08;46481.91;;;-144.79;100.00
19827;BME280;10074;52.018;4.726;2024-02-15T12:24:11;46477.91;;;-144.79;100.00
19827;BME280;10074;52.018;4.726;2024-02-15T12:29:16;46473.91;;;-144.79;100.00
19827;BME280;10074;52.018;4.726;2024-02-15T12:34:20;46477.91;;;-144.79;100.00
19827;BME280;10074;52.018;4.726;2024-02-15T12:39:26;46479.91;;;-144.79;100.00
19827;BME280;10074;52.018;4.726;2024-02-15T12:44:28;46477.91;;;-144.79;100.00
19827;BME280;10074;52.018;4.726;2024-02-15T12:49:32;46469.88;;;-144.79;100.00
19827;BME280;10074;52.018;4.726;2024-02-15T12:54:34;46475.91;;;-144.79;100.00
19827;BME280;10074;52.018;4.726;2024-02-15T12:59:35;46469.88;;;-144.79;100.00
19827;BME280;10074;52.018;4.726;2024-02-15T13:04:36;46469.88;;;-144.79;100.00
19827;BME280;10074;52.018;4.726;2024-02-15T13:09:38;46469.88;;;-144.79;100.00
19827;BME280;10074;52.018;4.726;2024-02-15T13:14:40;46469.88;;;-144.79;100.00
19827;BME280;10074;52.018;4.726;2024-02-15T13:19:47;46467.88;;;-144.79;100.00
19827;BME280;10074;52.018;4.726;2024-02-15T13:24:49;46467.88;;;-144.79;100.00
19827;BME280;10074;52.018;4.726;2024-02-15T13:29:50;46457.88;;;-144.79;100.00
19827;BME280;10074;52.018;4.726;2024-02-15T13:34:50;46467.88;;;-144.79;100.00
19827;BME280;10074;52.018;4.726;2024-02-15T13:39:51;46465.88;;;-144.79;100.00
19827;BME280;10074;52.018;4.726;2024-02-15T13:44:51;46465.88;;;-144.79;100.00
19827;BME280;10074;52.018;4.726;2024-02-15T13:49:52;46459.88;;;-144.79;100.00
19827;BME280;10074;52.018;4.726;2024-02-15T13:54:52;46463.88;;;-144.79;100.00
19827;BME280;10074;52.018;4.726;2024-02-15T13:59:53;46467.88;;;-144.79;100.00
19827;BME280;10074;52.018;4.726;2024-02-15T14:04:54;46467.88;;;-144.79;100.00
19827;BME280;10074;52.018;4.726;2024-02-15T14:09:54;46467.88;;;-144.79;100.00
19827;BME280;10074;52.018;4.726;2024-02-15T14:14:55;46475.91;;;-144.79;100.00
19827;BME280;10074;52.018;4.726;2024-02-15T14:19:57;46471.91;;;-144.79;100.00
19827;BME280;10074;52.018;4.726;2024-02-15T14:24:57;46473.91;;;-144.79;100.00
19827;BME280;10074;52.018;4.726;2024-02-15T14:29:58;46475.91;;;-144.79;100.00
19827;BME280;10074;52.018;4.726;2024-02-15T14:35:17;46479.91;;;-144.79;100.00
19827;BME280;10074;52.018;4.726;2024-02-15T14:40:17;46481.91;;;-144.79;100.00
19827;BME280;10074;52.018;4.726;2024-02-15T14:45:18;46475.91;;;-144.79;100.00
19827;BME280;10074;52.018;4.726;2024-02-15T14:50:18;46479.91;;;-144.79;100.00
19827;BME280;10074;52.018;4.726;2024-02-15T14:55:20;46477.91;;;-144.79;100.00
19827;BME280;10074;52.018;4.726;2024-02-15T15:00:21;46479.91;;;-144.79;100.00
19827;BME280;10074;52.018;4.726;2024-02-15T15:05:22;46477.91;;;-144.79;100.00
19827;BME280;10074;52.018;4.726;2024-02-15T15:10:41;46475.91;;;-144.79;100.00
19827;BME280;10074;52.018;4.726;2024-02-15T15:16:00;46479.91;;;-144.79;100.00
19827;BME280;10074;52.018;4.726;2024-02-15T15:21:02;46479.91;;;-144.79;100.00
19827;BME280;10074;52.018;4.726;2024-02-15T15:26:03;46483.94;;;-144.79;100.00
19827;BME280;10074;52.018;4.726;2024-02-15T15:31:03;46481.91;;;-144.79;100.00
19827;BME280;10074;52.018;4.726;2024-02-15T15:36:05;46479.91;;;-144.79;100.00
19827;BME280;10074;52.018;4.726;2024-02-15T15:41:07;46479.91;;;-144.79;100.00
19827;BME280;10074;52.018;4.726;2024-02-15T15:46:14;46477.91;;;-144.79;100.00
19827;BME280;10074;52.018;4.726;2024-02-15T15:51:15;46481.91;;;-144.79;100.00
19827;BME280;10074;52.018;4.726;2024-02-15T15:56:15;46479.91;;;-144.79;100.00
19827;BME280;10074;52.018;4.726;2024-02-15T16:01:16;46479.91;;;-144.79;100.00
19827;BME280;10074;52.018;4.726;2024-02-15T16:06:19;46479.91;;;-144.79;100.00
19827;BME280;10074;52.018;4.726;2024-02-15T16:11:19;46477.91;;;-144.79;100.00
19827;BME280;10074;52.018;4.726;2024-02-15T16:16:19;46477.91;;;-144.79;100.00
19827;BME280;10074;52.018;4.726;2024-02-15T16:21:19;46479.91;;;-144.79;100.00
19827;BME280;10074;52.018;4.726;2024-02-15T16:26:20;46479.91;;;-144.79;100.00
19827;BME280;10074;52.018;4.726;2024-02-15T16:31:21;46477.91;;;-144.79;100.00
19827;BME280;10074;52.018;4.726;2024-02-15T16:36:21;46477.91;;;-144.79;100.00
19827;BME280;10074;52.018;4.726;2024-02-15T16:41:22;46475.91;;;-144.79;100.00
19827;BME280;10074;52.018;4.726;2024-02-15T16:46:25;46481.91;;;-144.79;100.00
19827;BME280;10074;52.018;4.726;2024-02-15T16:51:25;46479.91;;;-144.79;100.00
19827;BME280;10074;52.018;4.726;2024-02-15T16:56:26;46485.94;;;-144.79;100.00
19827;BME280;10074;52.018;4.726;2024-02-15T17:01:28;46483.94;;;-144.79;100.00
19827;BME280;10074;52.018;4.726;2024-02-15T17:06:28;46479.91;;;-144.79;100.00
19827;BME280;10074;52.018;4.726;2024-02-15T17:11:29;46479.91;;;-144.79;100.00
19827;BME280;10074;52.018;4.726;2024-02-15T17:16:29;46477.91;;;-144.79;100.00
19827;BME280;10074;52.018;4.726;2024-02-15T17:21:29;46477.91;;;-144.79;100.00
19827;BME280;10074;52.018;4.726;2024-02-15T17:26:32;46481.91;;;-144.79;100.00
19827;BME280;10074;52.018;4.726;2024-02-15T17:31:32;46479.91;;;-144.79;100.00
19827;BME280;10074;52.018;4.726;2024-02-15T17:36:33;46483.94;;;-144.79;100.00
19827;BME280;10074;52.018;4.726;2024-02-15T17:41:34;46479.91;;;-144.79;100.00
19827;BME280;10074;52.018;4.726;2024-02-15T17:46:34;46483.94;;;-144.79;100.00
19827;BME280;10074;52.018;4.726;2024-02-15T17:51:35;46479.91;;;-144.79;100.00
19827;BME280;10074;52.018;4.726;2024-02-15T17:56:36;46481.91;;;-144.79;100.00
19827;BME280;10074;52.018;4.726;2024-02-15T18:01:37;46477.91;;;-144.79;100.00
19827;BME280;10074;52.018;4.726;2024-02-15T18:06:41;46483.94;;;-144.79;100.00
19827;BME280;10074;52.018;4.726;2024-02-15T18:11:41;46479.91;;;-144.79;100.00
19827;BME280;10074;52.018;4.726;2024-02-15T18:16:42;46481.91;;;-144.79;100.00
19827;BME280;10074;52.018;4.726;2024-02-15T18:21:48;46481.91;;;-144.79;100.00
19827;BME280;10074;52.018;4.726;2024-02-15T18:26:48;46479.91;;;-144.79;100.00
19827;BME280;10074;52.018;4.726;2024-02-15T18:31:49;46479.91;;;-144.79;100.00
19827;BME280;10074;52.018;4.726;2024-02-15T18:36:51;46475.91;;;-144.79;100.00
19827;BME280;10074;52.018;4.726;2024-02-15T18:41:51;46481.91;;;-144.79;100.00
19827;BME280;10074;52.018;4.726;2024-02-15T18:46:52;46483.94;;;-144.79;100.00
19827;BME280;10074;52.018;4.726;2024-02-15T18:51:52;46479.91;;;-144.79;100.00
19827;BME280;10074;52.018;4.726;2024-02-15T18:56:53;46475.91;;;-144.79;100.00
19827;BME280;10074;52.018;4.726;2024-02-15T19:01:55;46473.91;;;-144.79;100.00
19827;BME280;10074;52.018;4.726;2024-02-15T19:06:55;46477.91;;;-144.79;100.00
19827;BME280;10074;52.018;4.726;2024-02-15T19:11:56;46475.91;;;-144.79;100.00
19827;BME280;10074;52.018;4.726;2024-02-15T19:16:58;46477.91;;;-144.79;100.00
19827;BME280;10074;52.018;4.726;2024-02-15T19:21:58;46479.91;;;-144.79;100.00
19827;BME280;10074;52.018;4.726;2024-02-15T19:27:00;46477.91;;;-144.79;100.00
19827;BME280;10074;52.018;4.726;2024-02-15T19:32:00;46479.91;;;-144.79;100.00
19827;BME280;10074;52.018;4.726;2024-02-15T19:37:01;46477.91;;;-144.79;100.00
19827;BME280;10074;52.018;4.726;2024-02-15T19:42:02;46479.91;;;-144.79;100.00
19827;BME280;10074;52.018;4.726;2024-02-15T19:47:04;46479.91;;;-144.79;100.00
19827;BME280;10074;52.018;4.726;2024-02-15T19:52:04;46473.91;;;-144.79;100.00
19827;BME280;10074;52.018;4.726;2024-02-15T19:57:09;46481.91;;;-144.79;100.00
19827;BME280;10074;52.018;4.726;2024-02-15T20:02:09;46475.91;;;-144.79;100.00
19827;BME280;10074;52.018;4.726;2024-02-15T20:07:09;46477.91;;;-144.79;100.00
19827;BME280;10074;52.018;4.726;2024-02-15T20:12:10;46483.94;;;-144.79;100.00
19827;BME280;10074;52.018;4.726;2024-02-15T20:17:11;46475.91;;;-144.79;100.00
19827;BME280;10074;52.018;4.726;2024-02-15T20:22:13;46477.91;;;-144.79;100.00
19827;BME280;10074;52.018;4.726;2024-02-15T20:27:13;46481.91;;;-144.79;100.00
19827;BME280;10074;52.018;4.726;2024-02-15T20:32:19;46475.91;;;-144.79;100.00
19827;BME280;10074;52.018;4.726;2024-02-15T20:37:21;46477.91;;;-144.79;100.00
19827;BME280;10074;52.018;4.726;2024-02-15T20:42:23;46481.91;;;-144.79;100.00
19827;BME280;10074;52.018;4.726;2024-02-15T20:47:23;46479.91;;;-144.79;100.00
19827;BME280;10074;52.018;4.726;2024-02-15T20:52:24;46479.91;;;-144.79;100.00
19827;BME280;10074;52.018;4.726;2024-02-15T20:57:24;46479.91;;;-144.79;100.00
19827;BME280;10074;52.018;4.726;2024-02-15T21:02:26;46475.91;;;-144.79;100.00
19827;BME280;10074;52.018;4.726;2024-02-15T21:07:30;46477.91;;;-144.79;100.00
19827;BME280;10074;52.018;4.726;2024-02-15T21:12:31;46479.91;;;-144.79;100.00
19827;BME280;10074;52.018;4.726;2024-02-15T21:17:31;46479.91;;;-144.79;100.00
19827;BME280;10074;52.018;4.726;2024-02-15T21:22:32;46479.91;;;-144.79;100.00
19827;BME280;10074;52.018;4.726;2024-02-15T21:27:33;46483.94;;;-144.79;100.00
19827;BME280;10074;52.018;4.726;2024-02-15T21:32:34;46483.94;;;-144.79;100.00
19827;BME280;10074;52.018;4.726;2024-02-15T21:37:34;46479.91;;;-144.79;100.00
19827;BME280;10074;52.018;4.726;2024-02-15T21:42:35;46475.91;;;-144.79;100.00
19827;BME280;10074;52.018;4.726;2024-02-15T21:47:36;46479.91;;;-144.79;100.00
19827;BME280;10074;52.018;4.726;2024-02-15T21:52:37;46475.91;;;-144.79;100.00
19827;BME280;10074;52.018;4.726;2024-02-15T21:57:37;46479.91;;;-144.79;100.00
19827;BME280;10074;52.018;4.726;2024-02-15T22:02:37;46477.91;;;-144.79;100.00
19827;BME280;10074;52.018;4.726;2024-02-15T22:07:38;46479.91;;;-144.79;100.00
19827;BME280;10074;52.018;4.726;2024-02-15T22:12:39;46475.91;;;-144.79;100.00
19827;BME280;10074;52.018;4.726;2024-02-15T22:17:40;46481.91;;;-144.79;100.00
19827;BME280;10074;52.018;4.726;2024-02-15T22:22:41;46483.94;;;-144.79;100.00
19827;BME280;10074;52.018;4.726;2024-02-15T22:27:44;46479.91;;;-144.79;100.00
19827;BME280;10074;52.018;4.726;2024-02-15T22:32:45;46481.91;;;-144.79;100.00
19827;BME280;10074;52.018;4.726;2024-02-15T22:37:45;46479.91;;;-144.79;100.00
19827;BME280;10074;52.018;4.726;2024-02-15T22:42:47;46479.91;;;-144.79;100.00
19827;BME280;10074;52.018;4.726;2024-02-15T22:47:47;46477.91;;;-144.79;100.00
19827;BME280;10074;52.018;4.726;2024-02-15T22:52:48;46479.91;;;-144.79;100.00
19827;BME280;10074;52.018;4.726;2024-02-15T22:57:50;46479.91;;;-144.79;100.00
19827;BME280;10074;52.018;4.726;2024-02-15T23:02:50;46481.91;;;-144.79;100.00
19827;BME280;10074;52.018;4.726;2024-02-15T23:07:51;46481.91;;;-144.79;100.00
19827;BME280;10074;52.018;4.726;2024-02-15T23:12:51;46483.94;;;-144.79;100.00
19827;BME280;10074;52.018;4.726;2024-02-15T23:17:51;46479.91;;;-144.79;100.00
19827;BME280;10074;52.018;4.726;2024-02-15T23:22:51;46483.94;;;-144.79;100.00
19827;BME280;10074;52.018;4.726;2024-02-15T23:27:52;46479.91;;;-144.79;100.00
19827;BME280;10074;52.018;4.726;2024-02-15T23:32:52;46481.91;;;-144.79;100.00
19827;BME280;10074;52.018;4.726;2024-02-15T23:37:52;46477.91;;;-144.79;100.00
19827;BME280;10074;52.018;4.726;2024-02-15T23:43:11;46481.91;;;-144.79;100.00
19827;BME280;10074;52.018;4.726;2024-02-15T23:48:12;46479.91;;;-144.79;100.00
19827;BME280;10074;52.018;4.726;2024-02-15T23:53:12;46479.91;;;-144.79;100.00
19827;BME280;10074;52.018;4.726;2024-02-15T23:58:12;46483.94;;;-144.79;100.00
